createdAt,value
2023-05-20T00:01:07.605Z,17.57
2023-05-20T00:04:09.645Z,17.85
2023-05-20T00:07:11.636Z,17.47
2023-05-20T00:10:13.522Z,18.21
2023-05-20T00:13:15.436Z,18.16
2023-05-20T00:16:17.496Z,17.91
2023-05-20T00:19:19.433Z,17.60
2023-05-20T00:22:24.005Z,17.93
2023-05-20T00:25:26.141Z,17.93
2023-05-20T00:28:28.274Z,18.01
2023-05-20T00:31:30.228Z,17.61
2023-05-20T00:34:32.228Z,17.43
2023-05-20T00:37:34.131Z,17.15
2023-05-20T00:40:36.195Z,17.38
2023-05-20T00:43:38.092Z,18.14
2023-05-20T00:46:40.087Z,17.88
2023-05-20T00:49:42.163Z,17.85
2023-05-20T00:52:45.417Z,18.03
2023-05-20T00:55:47.283Z,17.48
2023-05-20T00:58:49.589Z,16.95
2023-05-20T01:01:53.856Z,17.37
2023-05-20T01:04:56.869Z,16.72
2023-05-20T01:08:01.541Z,16.90
2023-05-20T01:11:05.104Z,17.76
2023-05-20T01:14:07.742Z,16.83
2023-05-20T01:17:12.717Z,16.93
2023-05-20T01:20:14.860Z,17.75
2023-05-20T01:23:17.313Z,18.28
2023-05-20T01:26:19.599Z,18.36
2023-05-20T01:29:22.360Z,18.01
2023-05-20T01:32:41.204Z,18.11
2023-05-20T01:35:43.195Z,17.95
2023-05-20T01:38:45.069Z,18.02
2023-05-20T01:41:46.942Z,18.30
2023-05-20T01:44:48.957Z,18.64
2023-05-20T01:47:50.861Z,17.87
2023-05-20T01:50:53.082Z,17.97
2023-05-20T01:53:55.116Z,18.63
2023-05-20T01:56:57.220Z,17.92
2023-05-20T01:59:59.095Z,18.65
2023-05-20T02:03:01.229Z,18.70
2023-05-20T02:06:05.919Z,18.63
2023-05-20T02:09:07.998Z,18.52
2023-05-20T02:12:10.155Z,17.57
2023-05-20T02:15:12.114Z,18.07
2023-05-20T02:18:14.196Z,17.36
2023-05-20T02:21:16.240Z,17.99
2023-05-20T02:24:18.369Z,17.88
2023-05-20T02:27:20.410Z,17.73
2023-05-20T02:30:22.272Z,18.14
2023-05-20T02:33:24.284Z,18.01
2023-05-20T02:36:27.963Z,17.69
2023-05-20T02:39:29.916Z,18.30
2023-05-20T02:42:31.814Z,17.93
2023-05-20T02:45:33.690Z,18.00
2023-05-20T02:48:35.828Z,18.28
2023-05-20T02:51:37.705Z,18.91
2023-05-20T02:54:39.591Z,18.33
2023-05-20T02:57:41.521Z,17.84
2023-05-20T03:00:43.663Z,17.61
2023-05-20T03:03:45.580Z,17.45
2023-05-20T03:06:48.006Z,17.17
2023-05-20T03:09:49.921Z,17.00
2023-05-20T03:12:51.911Z,17.18
2023-05-20T03:15:54.123Z,17.03
2023-05-20T03:18:56.096Z,17.26
2023-05-20T03:21:58.174Z,17.00
2023-05-20T03:25:00.656Z,17.22
2023-05-20T03:28:02.494Z,17.16
2023-05-20T03:31:04.652Z,17.65
2023-05-20T03:34:07.774Z,17.35
2023-05-20T03:37:09.690Z,17.67
2023-05-20T03:40:11.763Z,17.75
2023-05-20T03:43:13.708Z,17.95
2023-05-20T03:46:15.705Z,17.64
2023-05-20T03:49:17.629Z,16.92
2023-05-20T03:52:19.811Z,17.00
2023-05-20T03:55:21.777Z,16.86
2023-05-20T03:58:23.885Z,17.03
2023-05-20T04:01:25.854Z,16.79
2023-05-20T04:04:27.775Z,17.96
2023-05-20T04:07:32.047Z,17.52
2023-05-20T04:10:34.075Z,17.09
2023-05-20T04:13:36.003Z,17.42
2023-05-20T04:16:38.206Z,17.81
2023-05-20T04:19:40.278Z,17.75
2023-05-20T04:22:42.279Z,18.21
2023-05-20T04:25:44.880Z,18.21
2023-05-20T04:28:49.692Z,16.95
2023-05-20T04:31:52.320Z,17.39
2023-05-20T04:34:56.167Z,17.87
2023-05-20T04:37:58.123Z,18.40
2023-05-20T04:41:00.469Z,17.57
2023-05-20T04:44:02.602Z,18.18
2023-05-20T04:47:04.557Z,18.26
2023-05-20T04:50:08.876Z,18.49
2023-05-20T04:53:10.768Z,19.65
2023-05-20T04:56:13.612Z,19.06
2023-05-20T04:59:17.980Z,18.66
2023-05-20T05:02:19.881Z,20.17
2023-05-20T05:05:24.057Z,21.12
2023-05-20T05:08:26.892Z,21.46
2023-05-20T05:11:28.867Z,20.54
2023-05-20T05:14:30.842Z,20.32
2023-05-20T05:17:32.889Z,21.49
2023-05-20T05:20:37.098Z,21.88
2023-05-20T05:23:39.088Z,21.92
2023-05-20T05:26:40.985Z,23.17
2023-05-20T05:29:45.139Z,23.07
2023-05-20T05:32:47.228Z,21.22
2023-05-20T05:35:49.265Z,23.85
2023-05-20T05:38:51.116Z,23.09
2023-05-20T05:41:54.211Z,23.63
2023-05-20T05:44:56.182Z,23.88
2023-05-20T05:47:58.148Z,23.16
2023-05-20T05:51:00.177Z,24.01
2023-05-20T05:54:02.099Z,25.25
2023-05-20T05:57:05.846Z,23.60
2023-05-20T06:00:08.655Z,26.51
2023-05-20T06:03:10.940Z,27.00
2023-05-20T06:06:12.884Z,25.43
2023-05-20T06:09:14.993Z,25.64
2023-05-20T06:12:16.957Z,25.55
2023-05-20T06:15:18.864Z,24.13
2023-05-20T06:18:20.892Z,25.07
2023-05-20T06:21:23.208Z,25.01
2023-05-20T06:24:25.238Z,25.72
2023-05-20T06:27:27.789Z,26.08
2023-05-20T06:30:29.794Z,26.16
2023-05-20T06:33:31.797Z,26.04
2023-05-20T06:36:36.737Z,26.01
2023-05-20T06:39:38.751Z,25.88
2023-05-20T06:42:40.825Z,26.89
2023-05-20T06:45:42.966Z,28.25
2023-05-20T06:48:47.188Z,27.03
2023-05-20T06:51:49.094Z,26.57
2023-05-20T06:54:51.055Z,26.94
2023-05-20T06:57:52.962Z,27.19
2023-05-20T07:00:55.056Z,27.81
2023-05-20T07:03:57.224Z,28.34
2023-05-20T07:06:59.149Z,27.94
2023-05-20T07:10:01.181Z,29.38
2023-05-20T07:13:03.650Z,28.63
2023-05-20T07:16:08.258Z,28.03
2023-05-20T07:19:10.346Z,27.50
2023-05-20T07:22:12.423Z,29.08
2023-05-20T07:25:14.471Z,27.78
2023-05-20T07:28:17.822Z,28.47
2023-05-20T07:31:19.808Z,27.15
2023-05-20T07:34:22.849Z,27.37
2023-05-20T07:37:24.811Z,27.39
2023-05-20T07:40:27.440Z,28.84
2023-05-20T07:43:29.351Z,28.19
2023-05-20T07:46:33.991Z,29.30
2023-05-20T07:49:35.875Z,29.02
2023-05-20T07:52:54.542Z,30.04
2023-05-20T07:56:00.121Z,29.55
2023-05-20T07:59:03.393Z,29.49
2023-05-20T08:02:05.561Z,28.92
2023-05-20T08:05:07.816Z,26.98
2023-05-20T08:08:10.577Z,27.90
2023-05-20T08:11:14.670Z,27.84
2023-05-20T08:14:16.660Z,28.60
2023-05-20T08:17:19.419Z,29.44
2023-05-20T08:20:21.322Z,27.78
2023-05-20T08:23:23.265Z,30.48
2023-05-20T08:26:25.292Z,29.87
2023-05-20T08:29:27.148Z,29.86
2023-05-20T08:32:29.058Z,30.46
2023-05-20T08:35:31.059Z,31.52
2023-05-20T08:38:33.008Z,30.59
2023-05-20T08:41:34.923Z,28.94
2023-05-20T08:44:36.819Z,30.08
2023-05-20T08:47:39.372Z,29.96
2023-05-20T08:50:41.265Z,30.16
2023-05-20T08:53:43.220Z,32.23
2023-05-20T08:56:45.118Z,31.71
2023-05-20T08:59:49.453Z,30.36
2023-05-20T09:02:51.939Z,30.75
2023-05-20T09:05:54.106Z,31.81
2023-05-20T09:08:56.006Z,30.01
2023-05-20T09:11:57.904Z,30.50
2023-05-20T09:14:59.768Z,32.85
2023-05-20T09:18:10.467Z,34.02
2023-05-20T09:21:12.431Z,31.89
2023-05-20T09:24:14.268Z,30.44
2023-05-20T09:27:16.235Z,31.07
2023-05-20T09:30:22.063Z,32.01
2023-05-20T09:33:27.106Z,33.83
2023-05-20T09:36:31.467Z,31.82
2023-05-20T09:39:34.255Z,33.66
2023-05-20T09:42:56.452Z,33.44
2023-05-20T09:46:00.972Z,33.64
2023-05-20T09:49:03.065Z,34.33
2023-05-20T09:52:04.979Z,33.04
2023-05-20T09:55:07.222Z,32.12
2023-05-20T09:58:09.074Z,32.23
2023-05-20T10:01:11.120Z,34.31
2023-05-20T10:04:15.418Z,35.84
2023-05-20T10:07:44.684Z,33.21
2023-05-20T10:10:59.068Z,35.89
2023-05-20T10:14:19.881Z,34.35
2023-05-20T10:17:42.969Z,35.21
2023-05-20T10:20:48.246Z,32.97
2023-05-20T10:23:50.716Z,34.33
2023-05-20T10:26:54.987Z,35.44
2023-05-20T10:29:57.782Z,35.31
2023-05-20T10:33:03.386Z,36.82
2023-05-20T10:36:05.687Z,35.06
2023-05-20T10:39:07.532Z,32.96
2023-05-20T10:42:09.988Z,35.72
2023-05-20T10:45:12.142Z,36.39
2023-05-20T10:48:43.518Z,36.44
2023-05-20T10:51:46.813Z,35.26
2023-05-20T10:54:55.575Z,36.53
2023-05-20T10:57:57.802Z,36.21
2023-05-20T11:00:59.880Z,37.11
2023-05-20T11:04:02.502Z,34.42
2023-05-20T11:07:04.825Z,35.51
2023-05-20T11:10:08.989Z,36.23
2023-05-20T11:13:12.340Z,36.35
2023-05-20T11:16:14.379Z,35.68
2023-05-20T11:19:16.770Z,35.44
2023-05-20T11:22:18.812Z,33.51
2023-05-20T11:25:21.084Z,34.70
2023-05-20T11:28:26.476Z,36.54
2023-05-20T11:31:28.409Z,36.65
2023-05-20T11:34:34.416Z,36.12
2023-05-20T11:37:36.479Z,34.72
2023-05-20T11:40:49.800Z,36.69
2023-05-20T11:43:57.524Z,36.11
2023-05-20T11:47:00.544Z,38.29
2023-05-20T11:50:02.936Z,35.04
2023-05-20T11:53:05.061Z,36.98
2023-05-20T11:56:07.073Z,38.19
2023-05-20T11:59:12.604Z,37.36
2023-05-20T12:02:16.053Z,37.91
2023-05-20T12:05:18.203Z,34.88
2023-05-20T12:08:20.595Z,35.78
2023-05-20T12:11:22.566Z,37.41
2023-05-20T12:14:25.781Z,35.77
2023-05-20T12:17:27.685Z,34.29
2023-05-20T12:20:31.023Z,32.58
2023-05-20T12:23:34.409Z,31.55
2023-05-20T12:26:40.387Z,30.10
2023-05-20T12:29:42.499Z,31.41
2023-05-20T12:32:44.909Z,29.93
2023-05-20T12:35:47.082Z,30.18
2023-05-20T12:38:51.889Z,30.09
2023-05-20T12:41:54.059Z,29.17
2023-05-20T12:44:56.168Z,29.17
2023-05-20T12:47:58.397Z,29.25
2023-05-20T12:51:00.414Z,30.07
2023-05-20T12:54:02.397Z,29.91
2023-05-20T12:57:05.279Z,29.83
2023-05-20T13:00:10.864Z,29.27
2023-05-20T13:03:13.046Z,29.55
2023-05-20T13:06:15.079Z,30.00
2023-05-20T13:09:19.698Z,29.81
2023-05-20T13:12:22.170Z,29.49
2023-05-20T13:15:24.364Z,29.80
2023-05-20T13:18:28.547Z,29.70
2023-05-20T13:21:31.816Z,29.54
2023-05-20T13:24:34.161Z,28.63
2023-05-20T13:27:36.186Z,29.35
2023-05-20T13:30:38.371Z,28.60
2023-05-20T13:33:40.734Z,29.32
2023-05-20T13:36:42.657Z,29.44
2023-05-20T13:39:44.532Z,29.45
2023-05-20T13:42:46.625Z,29.55
2023-05-20T13:45:48.595Z,29.42
2023-05-20T13:48:50.617Z,29.61
2023-05-20T13:51:52.483Z,28.93
2023-05-20T13:54:54.418Z,28.82
2023-05-20T13:57:56.351Z,29.04
2023-05-20T14:00:59.284Z,28.48
2023-05-20T14:04:01.572Z,29.07
2023-05-20T14:07:04.147Z,28.56
2023-05-20T14:10:06.917Z,28.76
2023-05-20T14:13:10.734Z,29.07
2023-05-20T14:16:12.616Z,29.30
2023-05-20T14:19:14.581Z,28.98
2023-05-20T14:22:16.798Z,28.71
2023-05-20T14:25:18.884Z,28.32
2023-05-20T14:28:20.749Z,28.80
2023-05-20T14:31:22.701Z,28.48
2023-05-20T14:34:24.589Z,29.01
2023-05-20T14:37:28.077Z,29.04
2023-05-20T14:40:29.973Z,28.90
2023-05-20T14:43:32.272Z,28.63
2023-05-20T14:46:34.666Z,28.38
2023-05-20T14:49:39.114Z,28.78
2023-05-20T14:52:41.153Z,27.82
2023-05-20T14:55:43.173Z,28.40
2023-05-20T14:58:45.169Z,28.60
2023-05-20T15:01:47.052Z,28.12
2023-05-20T15:04:48.944Z,28.31
2023-05-20T15:07:51.554Z,29.03
2023-05-20T15:10:53.534Z,29.18
2023-05-20T15:13:55.446Z,28.92
2023-05-20T15:16:57.324Z,28.55
2023-05-20T15:19:59.235Z,28.11
2023-05-20T15:23:01.291Z,28.46
2023-05-20T15:26:03.253Z,27.65
2023-05-20T15:29:05.193Z,28.45
2023-05-20T15:32:07.159Z,28.38
2023-05-20T15:35:09.219Z,28.48
2023-05-20T15:38:11.192Z,28.57
2023-05-20T15:41:14.582Z,27.80
2023-05-20T15:44:16.771Z,27.85
2023-05-20T15:47:18.737Z,28.28
2023-05-20T15:50:20.647Z,28.33
2023-05-20T15:53:22.578Z,27.95
2023-05-20T15:56:24.645Z,27.41
2023-05-20T15:59:26.665Z,27.32
2023-05-20T16:02:28.783Z,27.48
2023-05-20T16:05:30.963Z,27.64
2023-05-20T16:08:34.311Z,26.85
2023-05-20T16:11:36.514Z,27.69
2023-05-20T16:14:38.470Z,27.73
2023-05-20T16:17:40.488Z,26.66
2023-05-20T16:20:42.630Z,26.44
2023-05-20T16:23:44.651Z,26.59
2023-05-20T16:26:46.691Z,26.77
2023-05-20T16:29:49.792Z,27.60
2023-05-20T16:32:51.962Z,27.60
2023-05-20T16:35:54.030Z,27.58
2023-05-20T16:38:56.008Z,27.18
2023-05-20T16:41:57.943Z,27.26
2023-05-20T16:44:59.860Z,27.03
2023-05-20T16:48:01.904Z,27.02
2023-05-20T16:51:04.011Z,27.33
2023-05-20T16:54:05.971Z,27.48
2023-05-20T16:57:08.226Z,27.42
2023-05-20T17:00:11.533Z,27.02
2023-05-20T17:03:14.301Z,27.50
2023-05-20T17:06:17.682Z,26.95
2023-05-20T17:09:19.563Z,26.57
2023-05-20T17:12:21.763Z,26.80
2023-05-20T17:15:23.926Z,26.32
2023-05-20T17:18:25.873Z,26.92
2023-05-20T17:21:29.993Z,26.69
2023-05-20T17:24:33.069Z,26.84
2023-05-20T17:27:34.925Z,26.88
2023-05-20T17:30:37.053Z,25.92
2023-05-20T17:33:39.147Z,25.94
2023-05-20T17:36:41.363Z,27.03
2023-05-20T17:39:43.569Z,26.60
2023-05-20T17:42:45.771Z,26.52
2023-05-20T17:45:48.148Z,26.73
2023-05-20T17:48:50.080Z,26.28
2023-05-20T17:51:52.002Z,26.81
2023-05-20T17:54:53.899Z,25.87
2023-05-20T17:57:57.916Z,26.55
2023-05-20T18:00:59.882Z,26.53
2023-05-20T18:04:05.879Z,25.97
2023-05-20T18:07:08.253Z,26.26
2023-05-20T18:10:12.868Z,25.90
2023-05-20T18:13:14.812Z,26.05
2023-05-20T18:16:16.848Z,26.23
2023-05-20T18:19:18.921Z,26.01
2023-05-20T18:22:20.942Z,25.64
2023-05-20T18:25:22.805Z,25.52
2023-05-20T18:28:24.815Z,25.15
2023-05-20T18:31:27.104Z,25.68
2023-05-20T18:34:29.225Z,25.99
2023-05-20T18:37:31.626Z,25.61
2023-05-20T18:40:33.916Z,25.50
2023-05-20T18:43:36.308Z,25.83
2023-05-20T18:46:38.190Z,25.88
2023-05-20T18:49:42.419Z,25.66
2023-05-20T18:52:44.476Z,25.66
2023-05-20T18:55:47.450Z,25.90
2023-05-20T18:58:49.505Z,25.97
2023-05-20T19:01:51.512Z,25.52
2023-05-20T19:04:53.517Z,25.63
2023-05-20T19:07:55.537Z,25.36
2023-05-20T19:10:57.528Z,25.86
2023-05-20T19:13:59.383Z,25.39
2023-05-20T19:17:01.470Z,25.32
2023-05-20T19:20:07.204Z,25.12
2023-05-20T19:23:09.144Z,25.11
2023-05-20T19:26:11.215Z,25.31
2023-05-20T19:29:15.134Z,25.07
2023-05-20T19:32:17.158Z,24.90
2023-05-20T19:35:19.158Z,24.93
2023-05-20T19:38:21.237Z,24.77
2023-05-20T19:41:23.112Z,24.95
2023-05-20T19:44:25.057Z,25.06
2023-05-20T19:47:27.022Z,25.02
2023-05-20T19:50:29.107Z,25.02
2023-05-20T19:53:31.264Z,24.12
2023-05-20T19:56:33.118Z,24.32
2023-05-20T19:59:36.510Z,24.42
2023-05-20T20:02:38.486Z,24.77
2023-05-20T20:05:42.892Z,24.54
2023-05-20T20:08:45.863Z,24.21
2023-05-20T20:11:47.717Z,24.21
2023-05-20T20:14:49.607Z,24.47
2023-05-20T20:17:52.550Z,24.69
2023-05-20T20:20:54.818Z,24.15
2023-05-20T20:23:56.669Z,23.98
2023-05-20T20:26:59.751Z,24.05
2023-05-20T20:30:01.655Z,24.03
2023-05-20T20:33:06.556Z,24.07
2023-05-20T20:36:11.212Z,23.91
2023-05-20T20:39:19.149Z,23.93
2023-05-20T20:42:22.584Z,23.67
2023-05-20T20:45:24.555Z,23.04
2023-05-20T20:48:27.407Z,23.12
2023-05-20T20:51:29.526Z,22.69
2023-05-20T20:54:32.915Z,23.23
2023-05-20T20:57:35.323Z,23.12
2023-05-20T21:00:39.993Z,22.71
2023-05-20T21:03:44.571Z,22.44
2023-05-20T21:06:46.592Z,23.06
2023-05-20T21:09:53.867Z,22.91
2023-05-20T21:12:58.538Z,22.77
2023-05-20T21:16:00.612Z,23.39
2023-05-20T21:19:02.791Z,22.19
2023-05-20T21:22:04.812Z,22.06
2023-05-20T21:25:07.056Z,22.34
2023-05-20T21:28:09.104Z,22.92
2023-05-20T21:31:11.047Z,23.04
2023-05-20T21:34:12.995Z,22.97
2023-05-20T21:37:15.056Z,22.58
2023-05-20T21:40:17.046Z,22.83
2023-05-20T21:43:19.015Z,22.27
2023-05-20T21:46:21.275Z,22.77
2023-05-20T21:49:23.255Z,22.63
2023-05-20T21:52:25.288Z,22.75
2023-05-20T21:55:27.183Z,22.10
2023-05-20T21:58:29.092Z,21.88
2023-05-20T22:01:31.062Z,22.32
2023-05-20T22:04:33.530Z,22.27
2023-05-20T22:07:35.432Z,22.22
2023-05-20T22:10:37.267Z,22.07
2023-05-20T22:13:43.259Z,22.32
2023-05-20T22:16:46.591Z,22.42
2023-05-20T22:19:49.915Z,21.35
2023-05-20T22:22:51.877Z,21.49
2023-05-20T22:25:54.027Z,22.48
2023-05-20T22:28:55.930Z,22.34
2023-05-20T22:31:57.955Z,21.86
2023-05-20T22:34:59.881Z,20.71
2023-05-20T22:38:01.789Z,21.27
2023-05-20T22:41:03.950Z,21.29
2023-05-20T22:44:05.865Z,21.55
2023-05-20T22:47:07.838Z,20.68
2023-05-20T22:50:09.979Z,20.19
2023-05-20T22:53:11.889Z,20.97
2023-05-20T22:56:14.345Z,20.79
2023-05-20T22:59:16.198Z,20.35
2023-05-20T23:02:18.378Z,20.31
2023-05-20T23:05:21.884Z,20.98
2023-05-20T23:08:23.800Z,21.61
2023-05-20T23:11:27.072Z,21.48
2023-05-20T23:14:29.160Z,20.82
2023-05-20T23:17:31.145Z,21.32
2023-05-20T23:20:33.060Z,21.90
2023-05-20T23:23:35.004Z,21.63
2023-05-20T23:26:37.787Z,20.90
2023-05-20T23:29:40.485Z,21.14
2023-05-20T23:32:42.812Z,21.26
2023-05-20T23:35:44.873Z,20.71
2023-05-20T23:38:49.683Z,20.27
2023-05-20T23:41:51.821Z,21.15
2023-05-20T23:44:53.766Z,20.46
2023-05-20T23:47:55.910Z,20.26
2023-05-20T23:50:57.792Z,20.08
2023-05-20T23:53:59.659Z,20.59
2023-05-20T23:57:01.557Z,21.67
